sensor_id;sensor_type;location;lat;lon;timestamp;P1;durP1;ratioP1;P2;durP2;ratioP2
5807;SDS011;2930;42.678;23.312;2022-09-09T00:02:19;5.35;;;4.95;;
5807;SDS011;2930;42.678;23.312;2022-09-09T00:04:54;5.30;;;5.03;;
5807;SDS011;2930;42.678;23.312;2022-09-09T00:07:48;4.82;;;4.57;;
5807;SDS011;2930;42.678;23.312;2022-09-09T00:10:22;4.75;;;4.45;;
5807;SDS011;2930;42.678;23.312;2022-09-09T00:13:02;5.15;;;4.75;;
5807;SDS011;2930;42.678;23.312;2022-09-09T00:15:43;4.55;;;4.25;;
5807;SDS011;2930;42.678;23.312;2022-09-09T00:21:06;4.50;;;4.20;;
5807;SDS011;2930;42.678;23.312;2022-09-09T00:23:38;4.75;;;4.43;;
5807;SDS011;2930;42.678;23.312;2022-09-09T00:26:18;4.72;;;4.40;;
5807;SDS011;2930;42.678;23.312;2022-09-09T00:31:33;4.70;;;4.40;;
5807;SDS011;2930;42.678;23.312;2022-09-09T00:34:12;4.80;;;4.50;;
5807;SDS011;2930;42.678;23.312;2022-09-09T00:36:43;5.32;;;4.93;;
5807;SDS011;2930;42.678;23.312;2022-09-09T00:39:16;5.00;;;4.70;;
5807;SDS011;2930;42.678;23.312;2022-09-09T00:44:39;5.25;;;4.88;;
5807;SDS011;2930;42.678;23.312;2022-09-09T00:50:22;5.45;;;5.00;;
5807;SDS011;2930;42.678;23.312;2022-09-09T00:58:33;4.55;;;4.25;;
5807;SDS011;2930;42.678;23.312;2022-09-09T01:01:02;4.97;;;4.50;;
5807;SDS011;2930;42.678;23.312;2022-09-09T01:03:38;5.38;;;4.97;;
5807;SDS011;2930;42.678;23.312;2022-09-09T01:06:26;4.95;;;4.70;;
5807;SDS011;2930;42.678;23.312;2022-09-09T01:11:22;5.32;;;4.68;;
5807;SDS011;2930;42.678;23.312;2022-09-09T01:13:56;5.60;;;5.20;;
5807;SDS011;2930;42.678;23.312;2022-09-09T01:16:29;5.25;;;4.90;;
5807;SDS011;2930;42.678;23.312;2022-09-09T01:18:56;5.47;;;4.85;;
5807;SDS011;2930;42.678;23.312;2022-09-09T01:21:33;5.30;;;4.90;;
5807;SDS011;2930;42.678;23.312;2022-09-09T01:24:22;5.70;;;5.30;;
5807;SDS011;2930;42.678;23.312;2022-09-09T01:26:54;4.93;;;4.63;;
5807;SDS011;2930;42.678;23.312;2022-09-09T01:29:24;4.28;;;3.97;;
5807;SDS011;2930;42.678;23.312;2022-09-09T01:34:20;4.78;;;4.38;;
5807;SDS011;2930;42.678;23.312;2022-09-09T01:36:49;5.20;;;4.80;;
5807;SDS011;2930;42.678;23.312;2022-09-09T01:39:30;9.02;;;4.30;;
5807;SDS011;2930;42.678;23.312;2022-09-09T01:41:57;5.18;;;4.75;;
5807;SDS011;2930;42.678;23.312;2022-09-09T01:44:24;4.55;;;4.35;;
5807;SDS011;2930;42.678;23.312;2022-09-09T01:46:51;6.15;;;4.60;;
5807;SDS011;2930;42.678;23.312;2022-09-09T01:49:17;4.72;;;4.43;;
5807;SDS011;2930;42.678;23.312;2022-09-09T01:51:43;5.43;;;5.03;;
5807;SDS011;2930;42.678;23.312;2022-09-09T01:54:14;5.20;;;4.72;;
5807;SDS011;2930;42.678;23.312;2022-09-09T02:02:16;4.97;;;4.68;;
5807;SDS011;2930;42.678;23.312;2022-09-09T02:05:03;5.47;;;5.07;;
5807;SDS011;2930;42.678;23.312;2022-09-09T02:07:42;4.97;;;4.63;;
5807;SDS011;2930;42.678;23.312;2022-09-09T02:10:24;4.55;;;4.30;;
5807;SDS011;2930;42.678;23.312;2022-09-09T02:13:11;4.50;;;4.20;;
5807;SDS011;2930;42.678;23.312;2022-09-09T02:15:53;4.63;;;4.30;;
5807;SDS011;2930;42.678;23.312;2022-09-09T02:18:29;5.18;;;4.80;;
5807;SDS011;2930;42.678;23.312;2022-09-09T02:20:59;5.15;;;4.72;;
5807;SDS011;2930;42.678;23.312;2022-09-09T02:23:27;7.40;;;4.75;;
5807;SDS011;2930;42.678;23.312;2022-09-09T02:25:54;4.75;;;4.35;;
5807;SDS011;2930;42.678;23.312;2022-09-09T02:28:23;5.13;;;4.72;;
5807;SDS011;2930;42.678;23.312;2022-09-09T02:30:52;5.78;;;4.95;;
5807;SDS011;2930;42.678;23.312;2022-09-09T02:33:20;8.40;;;4.78;;
5807;SDS011;2930;42.678;23.312;2022-09-09T02:35:49;5.75;;;4.25;;
5807;SDS011;2930;42.678;23.312;2022-09-09T02:38:17;5.57;;;5.00;;
5807;SDS011;2930;42.678;23.312;2022-09-09T02:40:44;5.07;;;4.72;;
5807;SDS011;2930;42.678;23.312;2022-09-09T02:43:10;5.75;;;5.18;;
5807;SDS011;2930;42.678;23.312;2022-09-09T02:45:39;5.72;;;5.03;;
5807;SDS011;2930;42.678;23.312;2022-09-09T02:53:54;5.13;;;4.82;;
5807;SDS011;2930;42.678;23.312;2022-09-09T02:56:37;5.38;;;4.97;;
5807;SDS011;2930;42.678;23.312;2022-09-09T02:59:07;5.88;;;5.45;;
5807;SDS011;2930;42.678;23.312;2022-09-09T03:01:32;5.55;;;5.15;;
5807;SDS011;2930;42.678;23.312;2022-09-09T03:03:58;5.60;;;5.00;;
5807;SDS011;2930;42.678;23.312;2022-09-09T03:06:24;4.72;;;4.43;;
5807;SDS011;2930;42.678;23.312;2022-09-09T03:08:50;5.70;;;5.28;;
5807;SDS011;2930;42.678;23.312;2022-09-09T03:11:17;5.93;;;5.43;;
5807;SDS011;2930;42.678;23.312;2022-09-09T03:13:43;5.28;;;4.97;;
5807;SDS011;2930;42.678;23.312;2022-09-09T03:16:08;5.72;;;5.20;;
5807;SDS011;2930;42.678;23.312;2022-09-09T03:18:34;6.50;;;5.18;;
5807;SDS011;2930;42.678;23.312;2022-09-09T03:21:00;5.50;;;5.13;;
5807;SDS011;2930;42.678;23.312;2022-09-09T03:23:26;5.70;;;5.30;;
5807;SDS011;2930;42.678;23.312;2022-09-09T03:25:51;5.32;;;4.95;;
5807;SDS011;2930;42.678;23.312;2022-09-09T03:28:19;5.20;;;4.88;;
5807;SDS011;2930;42.678;23.312;2022-09-09T03:30:46;5.30;;;4.85;;
5807;SDS011;2930;42.678;23.312;2022-09-09T03:33:11;4.88;;;4.57;;
5807;SDS011;2930;42.678;23.312;2022-09-09T03:35:37;5.75;;;5.03;;
5807;SDS011;2930;42.678;23.312;2022-09-09T03:38:04;5.10;;;4.70;;
5807;SDS011;2930;42.678;23.312;2022-09-09T03:40:30;5.57;;;5.18;;
5807;SDS011;2930;42.678;23.312;2022-09-09T03:42:56;5.03;;;4.75;;
5807;SDS011;2930;42.678;23.312;2022-09-09T03:45:21;5.65;;;5.18;;
5807;SDS011;2930;42.678;23.312;2022-09-09T03:47:47;5.03;;;4.72;;
5807;SDS011;2930;42.678;23.312;2022-09-09T03:50:12;5.15;;;4.65;;
5807;SDS011;2930;42.678;23.312;2022-09-09T03:52:39;5.10;;;4.72;;
5807;SDS011;2930;42.678;23.312;2022-09-09T03:55:06;5.50;;;5.20;;
5807;SDS011;2930;42.678;23.312;2022-09-09T03:57:32;4.90;;;4.60;;
5807;SDS011;2930;42.678;23.312;2022-09-09T04:00:00;7.25;;;4.97;;
5807;SDS011;2930;42.678;23.312;2022-09-09T04:02:30;5.40;;;5.00;;
5807;SDS011;2930;42.678;23.312;2022-09-09T04:04:56;5.10;;;4.80;;
5807;SDS011;2930;42.678;23.312;2022-09-09T04:07:21;5.78;;;5.38;;
5807;SDS011;2930;42.678;23.312;2022-09-09T04:09:47;5.78;;;5.40;;
5807;SDS011;2930;42.678;23.312;2022-09-09T04:12:13;5.72;;;5.22;;
5807;SDS011;2930;42.678;23.312;2022-09-09T04:14:38;5.90;;;5.32;;
5807;SDS011;2930;42.678;23.312;2022-09-09T04:17:04;5.60;;;5.20;;
5807;SDS011;2930;42.678;23.312;2022-09-09T04:19:31;5.18;;;4.72;;
5807;SDS011;2930;42.678;23.312;2022-09-09T04:21:57;6.25;;;5.45;;
5807;SDS011;2930;42.678;23.312;2022-09-09T04:24:23;5.20;;;4.85;;
5807;SDS011;2930;42.678;23.312;2022-09-09T04:26:50;6.40;;;5.50;;
5807;SDS011;2930;42.678;23.312;2022-09-09T04:29:16;5.85;;;5.22;;
5807;SDS011;2930;42.678;23.312;2022-09-09T04:31:41;5.47;;;5.07;;
5807;SDS011;2930;42.678;23.312;2022-09-09T04:34:08;6.22;;;5.68;;
5807;SDS011;2930;42.678;23.312;2022-09-09T04:36:34;5.47;;;5.07;;
5807;SDS011;2930;42.678;23.312;2022-09-09T04:39:00;7.03;;;5.03;;
5807;SDS011;2930;42.678;23.312;2022-09-09T04:41:26;5.32;;;4.82;;
5807;SDS011;2930;42.678;23.312;2022-09-09T04:43:52;5.80;;;5.28;;
5807;SDS011;2930;42.678;23.312;2022-09-09T04:46:18;6.13;;;5.22;;
5807;SDS011;2930;42.678;23.312;2022-09-09T04:48:48;5.72;;;5.20;;
5807;SDS011;2930;42.678;23.312;2022-09-09T04:51:14;5.97;;;5.63;;
5807;SDS011;2930;42.678;23.312;2022-09-09T04:53:40;6.10;;;5.20;;
5807;SDS011;2930;42.678;23.312;2022-09-09T04:56:07;5.07;;;4.75;;
5807;SDS011;2930;42.678;23.312;2022-09-09T04:58:37;5.50;;;4.97;;
5807;SDS011;2930;42.678;23.312;2022-09-09T05:01:08;5.63;;;5.22;;
5807;SDS011;2930;42.678;23.312;2022-09-09T05:03:35;5.80;;;5.25;;
5807;SDS011;2930;42.678;23.312;2022-09-09T05:06:07;6.13;;;5.13;;
5807;SDS011;2930;42.678;23.312;2022-09-09T05:08:37;5.47;;;5.05;;
5807;SDS011;2930;42.678;23.312;2022-09-09T05:11:12;7.90;;;6.13;;
5807;SDS011;2930;42.678;23.312;2022-09-09T05:13:46;6.28;;;5.63;;
5807;SDS011;2930;42.678;23.312;2022-09-09T05:16:12;5.28;;;4.88;;
5807;SDS011;2930;42.678;23.312;2022-09-09T05:18:41;4.68;;;4.47;;
5807;SDS011;2930;42.678;23.312;2022-09-09T05:21:08;4.75;;;4.45;;
5807;SDS011;2930;42.678;23.312;2022-09-09T05:23:35;5.55;;;5.20;;
5807;SDS011;2930;42.678;23.312;2022-09-09T05:26:02;6.22;;;5.63;;
5807;SDS011;2930;42.678;23.312;2022-09-09T05:28:28;5.82;;;5.30;;
5807;SDS011;2930;42.678;23.312;2022-09-09T05:31:03;5.60;;;5.10;;
5807;SDS011;2930;42.678;23.312;2022-09-09T05:33:30;5.70;;;5.30;;
5807;SDS011;2930;42.678;23.312;2022-09-09T05:36:07;4.85;;;4.55;;
5807;SDS011;2930;42.678;23.312;2022-09-09T05:38:35;4.63;;;4.32;;
5807;SDS011;2930;42.678;23.312;2022-09-09T05:41:02;5.25;;;4.95;;
5807;SDS011;2930;42.678;23.312;2022-09-09T05:43:28;5.88;;;5.38;;
5807;SDS011;2930;42.678;23.312;2022-09-09T05:46:10;6.20;;;5.07;;
5807;SDS011;2930;42.678;23.312;2022-09-09T05:48:38;6.05;;;5.55;;
5807;SDS011;2930;42.678;23.312;2022-09-09T05:51:07;5.88;;;5.47;;
5807;SDS011;2930;42.678;23.312;2022-09-09T05:53:35;5.40;;;5.00;;
5807;SDS011;2930;42.678;23.312;2022-09-09T05:56:02;5.95;;;5.40;;
5807;SDS011;2930;42.678;23.312;2022-09-09T05:58:36;5.57;;;5.15;;
5807;SDS011;2930;42.678;23.312;2022-09-09T06:01:09;6.07;;;5.68;;
5807;SDS011;2930;42.678;23.312;2022-09-09T06:03:40;5.78;;;5.38;;
5807;SDS011;2930;42.678;23.312;2022-09-09T06:06:08;5.10;;;4.72;;
5807;SDS011;2930;42.678;23.312;2022-09-09T06:08:38;4.60;;;4.13;;
5807;SDS011;2930;42.678;23.312;2022-09-09T06:11:10;4.00;;;3.70;;
5807;SDS011;2930;42.678;23.312;2022-09-09T06:13:38;5.50;;;5.10;;
5807;SDS011;2930;42.678;23.312;2022-09-09T06:16:16;5.20;;;4.90;;
5807;SDS011;2930;42.678;23.312;2022-09-09T06:18:43;6.40;;;4.45;;
5807;SDS011;2930;42.678;23.312;2022-09-09T06:21:11;4.70;;;4.45;;
5807;SDS011;2930;42.678;23.312;2022-09-09T06:23:43;4.85;;;4.47;;
5807;SDS011;2930;42.678;23.312;2022-09-09T06:28:39;4.95;;;4.65;;
5807;SDS011;2930;42.678;23.312;2022-09-09T06:31:08;4.88;;;4.50;;
5807;SDS011;2930;42.678;23.312;2022-09-09T06:33:36;4.25;;;3.78;;
5807;SDS011;2930;42.678;23.312;2022-09-09T06:36:14;5.07;;;4.43;;
5807;SDS011;2930;42.678;23.312;2022-09-09T06:38:41;4.93;;;4.50;;
5807;SDS011;2930;42.678;23.312;2022-09-09T06:41:08;4.88;;;4.43;;
5807;SDS011;2930;42.678;23.312;2022-09-09T06:43:35;5.53;;;4.25;;
5807;SDS011;2930;42.678;23.312;2022-09-09T06:46:05;4.95;;;4.65;;
5807;SDS011;2930;42.678;23.312;2022-09-09T06:48:41;5.82;;;5.15;;
5807;SDS011;2930;42.678;23.312;2022-09-09T06:51:17;5.70;;;4.80;;
5807;SDS011;2930;42.678;23.312;2022-09-09T06:53:46;5.40;;;5.00;;
5807;SDS011;2930;42.678;23.312;2022-09-09T06:56:24;4.72;;;4.50;;
5807;SDS011;2930;42.678;23.312;2022-09-09T06:58:52;5.50;;;4.97;;
5807;SDS011;2930;42.678;23.312;2022-09-09T07:01:20;5.18;;;4.88;;
5807;SDS011;2930;42.678;23.312;2022-09-09T07:03:52;4.68;;;4.38;;
5807;SDS011;2930;42.678;23.312;2022-09-09T07:06:32;4.82;;;4.55;;
5807;SDS011;2930;42.678;23.312;2022-09-09T07:09:00;6.32;;;5.07;;
5807;SDS011;2930;42.678;23.312;2022-09-09T07:11:30;4.60;;;4.40;;
5807;SDS011;2930;42.678;23.312;2022-09-09T07:13:58;4.60;;;4.22;;
5807;SDS011;2930;42.678;23.312;2022-09-09T07:16:24;4.10;;;3.90;;
5807;SDS011;2930;42.678;23.312;2022-09-09T07:18:52;4.40;;;4.20;;
5807;SDS011;2930;42.678;23.312;2022-09-09T07:21:23;4.63;;;4.32;;
5807;SDS011;2930;42.678;23.312;2022-09-09T07:23:49;4.47;;;4.13;;
5807;SDS011;2930;42.678;23.312;2022-09-09T07:26:17;5.07;;;4.78;;
5807;SDS011;2930;42.678;23.312;2022-09-09T07:28:44;4.47;;;4.28;;
5807;SDS011;2930;42.678;23.312;2022-09-09T07:31:18;4.85;;;4.57;;
5807;SDS011;2930;42.678;23.312;2022-09-09T07:33:45;3.90;;;3.80;;
5807;SDS011;2930;42.678;23.312;2022-09-09T07:36:16;5.05;;;4.50;;
5807;SDS011;2930;42.678;23.312;2022-09-09T07:38:47;5.45;;;3.97;;
5807;SDS011;2930;42.678;23.312;2022-09-09T07:43:50;4.28;;;4.03;;
5807;SDS011;2930;42.678;23.312;2022-09-09T07:46:17;4.68;;;4.47;;
5807;SDS011;2930;42.678;23.312;2022-09-09T07:48:48;6.80;;;5.05;;
5807;SDS011;2930;42.678;23.312;2022-09-09T07:51:23;4.68;;;4.38;;
5807;SDS011;2930;42.678;23.312;2022-09-09T07:53:54;4.88;;;4.57;;
5807;SDS011;2930;42.678;23.312;2022-09-09T07:56:22;3.65;;;3.45;;
5807;SDS011;2930;42.678;23.312;2022-09-09T07:58:49;5.28;;;4.07;;
5807;SDS011;2930;42.678;23.312;2022-09-09T08:01:16;4.88;;;4.38;;
5807;SDS011;2930;42.678;23.312;2022-09-09T08:03:46;5.80;;;4.57;;
5807;SDS011;2930;42.678;23.312;2022-09-09T08:06:17;4.50;;;4.30;;
5807;SDS011;2930;42.678;23.312;2022-09-09T08:08:43;4.55;;;4.25;;
5807;SDS011;2930;42.678;23.312;2022-09-09T08:11:12;4.40;;;4.00;;
5807;SDS011;2930;42.678;23.312;2022-09-09T08:13:40;7.75;;;3.85;;
5807;SDS011;2930;42.678;23.312;2022-09-09T08:16:08;4.45;;;4.10;;
5807;SDS011;2930;42.678;23.312;2022-09-09T08:18:37;3.85;;;3.60;;
5807;SDS011;2930;42.678;23.312;2022-09-09T08:21:14;3.70;;;3.50;;
5807;SDS011;2930;42.678;23.312;2022-09-09T08:23:46;5.18;;;3.72;;
5807;SDS011;2930;42.678;23.312;2022-09-09T08:26:17;5.03;;;4.53;;
5807;SDS011;2930;42.678;23.312;2022-09-09T08:28:47;3.97;;;3.67;;
5807;SDS011;2930;42.678;23.312;2022-09-09T08:31:17;4.00;;;3.85;;
5807;SDS011;2930;42.678;23.312;2022-09-09T08:33:43;3.67;;;3.58;;
5807;SDS011;2930;42.678;23.312;2022-09-09T08:36:14;4.47;;;4.07;;
5807;SDS011;2930;42.678;23.312;2022-09-09T08:38:41;4.53;;;4.13;;
5807;SDS011;2930;42.678;23.312;2022-09-09T08:44:02;3.67;;;3.58;;
5807;SDS011;2930;42.678;23.312;2022-09-09T08:46:36;4.18;;;3.92;;
5807;SDS011;2930;42.678;23.312;2022-09-09T08:52:03;3.88;;;3.67;;
5807;SDS011;2930;42.678;23.312;2022-09-09T08:54:40;4.85;;;4.43;;
5807;SDS011;2930;42.678;23.312;2022-09-09T08:57:07;5.10;;;3.60;;
5807;SDS011;2930;42.678;23.312;2022-09-09T08:59:40;4.15;;;4.05;;
5807;SDS011;2930;42.678;23.312;2022-09-09T09:02:23;4.20;;;4.00;;
5807;SDS011;2930;42.678;23.312;2022-09-09T09:10:42;4.15;;;3.85;;
5807;SDS011;2930;42.678;23.312;2022-09-09T09:18:48;4.60;;;3.70;;
5807;SDS011;2930;42.678;23.312;2022-09-09T09:21:17;3.63;;;3.42;;
5807;SDS011;2930;42.678;23.312;2022-09-09T09:23:51;5.20;;;3.90;;
5807;SDS011;2930;42.678;23.312;2022-09-09T09:26:23;5.03;;;3.80;;
5807;SDS011;2930;42.678;23.312;2022-09-09T09:28:55;3.40;;;3.30;;
5807;SDS011;2930;42.678;23.312;2022-09-09T09:31:24;3.63;;;3.53;;
5807;SDS011;2930;42.678;23.312;2022-09-09T09:33:55;3.78;;;3.65;;
5807;SDS011;2930;42.678;23.312;2022-09-09T09:36:33;4.47;;;3.95;;
5807;SDS011;2930;42.678;23.312;2022-09-09T09:39:03;3.97;;;3.72;;
5807;SDS011;2930;42.678;23.312;2022-09-09T09:41:38;4.13;;;4.00;;
5807;SDS011;2930;42.678;23.312;2022-09-09T09:44:06;4.07;;;3.85;;
5807;SDS011;2930;42.678;23.312;2022-09-09T09:47:14;3.97;;;3.75;;
5807;SDS011;2930;42.678;23.312;2022-09-09T09:49:58;3.97;;;3.78;;
5807;SDS011;2930;42.678;23.312;2022-09-09T09:52:26;4.07;;;3.95;;
5807;SDS011;2930;42.678;23.312;2022-09-09T09:54:53;3.60;;;3.50;;
5807;SDS011;2930;42.678;23.312;2022-09-09T09:57:31;3.75;;;3.65;;
5807;SDS011;2930;42.678;23.312;2022-09-09T10:00:17;4.13;;;3.92;;
5807;SDS011;2930;42.678;23.312;2022-09-09T10:02:44;4.05;;;3.85;;
5807;SDS011;2930;42.678;23.312;2022-09-09T10:07:45;4.55;;;4.25;;
5807;SDS011;2930;42.678;23.312;2022-09-09T10:10:20;3.80;;;3.70;;
5807;SDS011;2930;42.678;23.312;2022-09-09T10:13:02;3.70;;;3.55;;
5807;SDS011;2930;42.678;23.312;2022-09-09T10:15:45;4.05;;;3.85;;
5807;SDS011;2930;42.678;23.312;2022-09-09T10:18:46;4.40;;;3.85;;
5807;SDS011;2930;42.678;23.312;2022-09-09T10:24:07;4.07;;;3.88;;
5807;SDS011;2930;42.678;23.312;2022-09-09T10:38:16;5.30;;;4.60;;
5807;SDS011;2930;42.678;23.312;2022-09-09T10:56:58;4.75;;;4.30;;
5807;SDS011;2930;42.678;23.312;2022-09-09T10:59:35;5.13;;;4.60;;
5807;SDS011;2930;42.678;23.312;2022-09-09T11:04:49;4.38;;;4.07;;
5807;SDS011;2930;42.678;23.312;2022-09-09T11:07:28;6.75;;;5.10;;
5807;SDS011;2930;42.678;23.312;2022-09-09T11:09:58;5.10;;;4.72;;
5807;SDS011;2930;42.678;23.312;2022-09-09T11:12:27;5.20;;;4.53;;
5807;SDS011;2930;42.678;23.312;2022-09-09T11:14:57;5.18;;;4.80;;
5807;SDS011;2930;42.678;23.312;2022-09-09T11:17:34;7.63;;;4.82;;
5807;SDS011;2930;42.678;23.312;2022-09-09T11:20:06;5.07;;;4.72;;
5807;SDS011;2930;42.678;23.312;2022-09-09T11:22:38;5.45;;;5.15;;
5807;SDS011;2930;42.678;23.312;2022-09-09T11:38:51;5.22;;;4.78;;
5807;SDS011;2930;42.678;23.312;2022-09-09T11:41:21;6.90;;;4.80;;
5807;SDS011;2930;42.678;23.312;2022-09-09T11:43:48;5.38;;;4.82;;
5807;SDS011;2930;42.678;23.312;2022-09-09T11:46:17;5.32;;;4.95;;
5807;SDS011;2930;42.678;23.312;2022-09-09T11:49:00;8.07;;;4.85;;
5807;SDS011;2930;42.678;23.312;2022-09-09T11:51:30;5.72;;;5.25;;
5807;SDS011;2930;42.678;23.312;2022-09-09T11:56:31;5.45;;;5.15;;
5807;SDS011;2930;42.678;23.312;2022-09-09T11:58:59;5.10;;;4.75;;
5807;SDS011;2930;42.678;23.312;2022-09-09T12:01:37;5.07;;;4.60;;
5807;SDS011;2930;42.678;23.312;2022-09-09T12:04:27;5.38;;;5.10;;
5807;SDS011;2930;42.678;23.312;2022-09-09T12:07:03;6.28;;;4.93;;
5807;SDS011;2930;42.678;23.312;2022-09-09T12:12:22;6.13;;;5.72;;
5807;SDS011;2930;42.678;23.312;2022-09-09T12:17:36;5.30;;;5.03;;
5807;SDS011;2930;42.678;23.312;2022-09-09T12:22:43;7.40;;;5.22;;
5807;SDS011;2930;42.678;23.312;2022-09-09T12:25:36;6.57;;;5.13;;
5807;SDS011;2930;42.678;23.312;2022-09-09T12:30:48;5.13;;;4.82;;
5807;SDS011;2930;42.678;23.312;2022-09-09T12:33:53;5.50;;;5.00;;
5807;SDS011;2930;42.678;23.312;2022-09-09T12:36:22;5.72;;;5.22;;
5807;SDS011;2930;42.678;23.312;2022-09-09T12:38:54;7.80;;;5.13;;
5807;SDS011;2930;42.678;23.312;2022-09-09T12:41:25;5.68;;;5.20;;
5807;SDS011;2930;42.678;23.312;2022-09-09T12:44:03;5.03;;;4.68;;
5807;SDS011;2930;42.678;23.312;2022-09-09T12:51:58;6.18;;;5.60;;
5807;SDS011;2930;42.678;23.312;2022-09-09T12:54:38;5.70;;;5.40;;
5807;SDS011;2930;42.678;23.312;2022-09-09T12:57:13;5.50;;;5.18;;
5807;SDS011;2930;42.678;23.312;2022-09-09T12:59:41;5.05;;;4.85;;
5807;SDS011;2930;42.678;23.312;2022-09-09T13:02:22;6.05;;;5.45;;
5807;SDS011;2930;42.678;23.312;2022-09-09T13:04:50;5.68;;;5.28;;
5807;SDS011;2930;42.678;23.312;2022-09-09T13:07:17;5.18;;;4.88;;
5807;SDS011;2930;42.678;23.312;2022-09-09T13:09:45;6.05;;;5.43;;
5807;SDS011;2930;42.678;23.312;2022-09-09T13:12:15;6.15;;;5.70;;
5807;SDS011;2930;42.678;23.312;2022-09-09T13:14:44;3.67;;;3.58;;
5807;SDS011;2930;42.678;23.312;2022-09-09T13:17:20;5.75;;;3.28;;
5807;SDS011;2930;42.678;23.312;2022-09-09T13:19:51;3.83;;;3.63;;
5807;SDS011;2930;42.678;23.312;2022-09-09T13:22:30;3.28;;;2.97;;
5807;SDS011;2930;42.678;23.312;2022-09-09T13:27:38;6.80;;;3.55;;
5807;SDS011;2930;42.678;23.312;2022-09-09T13:30:21;3.78;;;3.15;;
5807;SDS011;2930;42.678;23.312;2022-09-09T13:33:00;3.72;;;3.20;;
5807;SDS011;2930;42.678;23.312;2022-09-09T13:38:19;3.88;;;3.67;;
5807;SDS011;2930;42.678;23.312;2022-09-09T13:40:56;4.35;;;3.97;;
5807;SDS011;2930;42.678;23.312;2022-09-09T13:43:26;4.45;;;4.05;;
5807;SDS011;2930;42.678;23.312;2022-09-09T13:46:00;4.03;;;3.83;;
5807;SDS011;2930;42.678;23.312;2022-09-09T13:48:56;3.78;;;3.50;;
5807;SDS011;2930;42.678;23.312;2022-09-09T13:51:33;6.18;;;4.57;;
5807;SDS011;2930;42.678;23.312;2022-09-09T13:54:02;5.60;;;4.47;;
5807;SDS011;2930;42.678;23.312;2022-09-09T13:56:35;4.03;;;3.88;;
5807;SDS011;2930;42.678;23.312;2022-09-09T13:59:03;4.43;;;4.13;;
5807;SDS011;2930;42.678;23.312;2022-09-09T14:01:30;5.38;;;4.70;;
5807;SDS011;2930;42.678;23.312;2022-09-09T14:03:56;4.50;;;4.40;;
5807;SDS011;2930;42.678;23.312;2022-09-09T14:06:22;5.15;;;4.90;;
5807;SDS011;2930;42.678;23.312;2022-09-09T14:08:51;4.63;;;4.32;;
5807;SDS011;2930;42.678;23.312;2022-09-09T14:11:17;4.82;;;4.43;;
5807;SDS011;2930;42.678;23.312;2022-09-09T14:13:43;5.35;;;5.00;;
5807;SDS011;2930;42.678;23.312;2022-09-09T14:16:09;5.13;;;4.82;;
5807;SDS011;2930;42.678;23.312;2022-09-09T14:18:35;5.03;;;4.82;;
5807;SDS011;2930;42.678;23.312;2022-09-09T14:21:03;6.07;;;5.43;;
5807;SDS011;2930;42.678;23.312;2022-09-09T14:23:28;6.00;;;5.50;;
5807;SDS011;2930;42.678;23.312;2022-09-09T14:25:54;5.15;;;4.88;;
5807;SDS011;2930;42.678;23.312;2022-09-09T14:28:21;6.00;;;5.53;;
5807;SDS011;2930;42.678;23.312;2022-09-09T14:30:47;6.65;;;5.30;;
5807;SDS011;2930;42.678;23.312;2022-09-09T14:33:14;8.75;;;5.90;;
5807;SDS011;2930;42.678;23.312;2022-09-09T14:35:41;5.43;;;4.90;;
5807;SDS011;2930;42.678;23.312;2022-09-09T14:38:07;6.07;;;5.38;;
5807;SDS011;2930;42.678;23.312;2022-09-09T14:40:34;7.82;;;5.07;;
5807;SDS011;2930;42.678;23.312;2022-09-09T14:43:00;4.90;;;4.47;;
5807;SDS011;2930;42.678;23.312;2022-09-09T14:45:27;5.45;;;5.07;;
5807;SDS011;2930;42.678;23.312;2022-09-09T14:47:53;4.72;;;4.53;;
5807;SDS011;2930;42.678;23.312;2022-09-09T14:50:19;5.28;;;5.00;;
5807;SDS011;2930;42.678;23.312;2022-09-09T14:52:46;4.85;;;4.53;;
5807;SDS011;2930;42.678;23.312;2022-09-09T14:55:12;6.75;;;5.47;;
5807;SDS011;2930;42.678;23.312;2022-09-09T14:57:38;5.13;;;4.80;;
5807;SDS011;2930;42.678;23.312;2022-09-09T15:00:05;4.90;;;4.70;;
5807;SDS011;2930;42.678;23.312;2022-09-09T15:02:33;5.35;;;4.85;;
5807;SDS011;2930;42.678;23.312;2022-09-09T15:04:58;5.78;;;5.32;;
5807;SDS011;2930;42.678;23.312;2022-09-09T15:07:24;5.38;;;4.97;;
5807;SDS011;2930;42.678;23.312;2022-09-09T15:09:51;6.93;;;4.70;;
5807;SDS011;2930;42.678;23.312;2022-09-09T15:12:18;4.70;;;4.40;;
5807;SDS011;2930;42.678;23.312;2022-09-09T15:14:44;6.72;;;4.75;;
5807;SDS011;2930;42.678;23.312;2022-09-09T15:17:10;4.93;;;4.63;;
5807;SDS011;2930;42.678;23.312;2022-09-09T15:19:36;5.88;;;4.40;;
5807;SDS011;2930;42.678;23.312;2022-09-09T15:22:03;5.90;;;5.50;;
5807;SDS011;2930;42.678;23.312;2022-09-09T15:24:30;6.65;;;5.55;;
5807;SDS011;2930;42.678;23.312;2022-09-09T15:26:57;5.95;;;5.60;;
5807;SDS011;2930;42.678;23.312;2022-09-09T15:29:23;5.80;;;5.20;;
5807;SDS011;2930;42.678;23.312;2022-09-09T15:31:49;5.72;;;4.95;;
5807;SDS011;2930;42.678;23.312;2022-09-09T15:34:14;5.30;;;5.10;;
5807;SDS011;2930;42.678;23.312;2022-09-09T15:36:41;5.60;;;4.97;;
5807;SDS011;2930;42.678;23.312;2022-09-09T15:39:09;4.85;;;4.60;;
5807;SDS011;2930;42.678;23.312;2022-09-09T15:41:37;5.68;;;5.18;;
5807;SDS011;2930;42.678;23.312;2022-09-09T15:44:04;6.80;;;5.30;;
5807;SDS011;2930;42.678;23.312;2022-09-09T15:51:38;5.80;;;5.35;;
5807;SDS011;2930;42.678;23.312;2022-09-09T15:54:10;8.40;;;5.00;;
5807;SDS011;2930;42.678;23.312;2022-09-09T15:56:37;5.85;;;5.35;;
5807;SDS011;2930;42.678;23.312;2022-09-09T15:59:03;5.50;;;5.07;;
5807;SDS011;2930;42.678;23.312;2022-09-09T16:01:29;12.40;;;5.15;;
5807;SDS011;2930;42.678;23.312;2022-09-09T16:03:56;5.45;;;5.15;;
5807;SDS011;2930;42.678;23.312;2022-09-09T16:06:23;6.55;;;4.70;;
5807;SDS011;2930;42.678;23.312;2022-09-09T16:08:50;5.50;;;5.10;;
5807;SDS011;2930;42.678;23.312;2022-09-09T16:11:22;5.55;;;4.80;;
5807;SDS011;2930;42.678;23.312;2022-09-09T16:13:49;5.50;;;5.07;;
5807;SDS011;2930;42.678;23.312;2022-09-09T16:16:16;8.70;;;6.40;;
5807;SDS011;2930;42.678;23.312;2022-09-09T16:18:45;6.30;;;5.30;;
5807;SDS011;2930;42.678;23.312;2022-09-09T16:21:16;6.25;;;5.22;;
5807;SDS011;2930;42.678;23.312;2022-09-09T16:23:46;5.50;;;5.05;;
5807;SDS011;2930;42.678;23.312;2022-09-09T16:26:14;6.05;;;5.50;;
5807;SDS011;2930;42.678;23.312;2022-09-09T16:28:41;6.05;;;5.55;;
5807;SDS011;2930;42.678;23.312;2022-09-09T16:31:07;6.50;;;5.93;;
5807;SDS011;2930;42.678;23.312;2022-09-09T16:33:35;7.22;;;6.57;;
5807;SDS011;2930;42.678;23.312;2022-09-09T16:36:05;8.48;;;5.75;;
5807;SDS011;2930;42.678;23.312;2022-09-09T16:38:32;6.28;;;5.68;;
5807;SDS011;2930;42.678;23.312;2022-09-09T16:41:01;7.05;;;5.70;;
5807;SDS011;2930;42.678;23.312;2022-09-09T16:43:29;5.72;;;5.28;;
5807;SDS011;2930;42.678;23.312;2022-09-09T16:45:55;10.85;;;5.57;;
5807;SDS011;2930;42.678;23.312;2022-09-09T16:48:20;9.40;;;6.05;;
5807;SDS011;2930;42.678;23.312;2022-09-09T16:50:46;6.75;;;5.95;;
5807;SDS011;2930;42.678;23.312;2022-09-09T16:53:13;6.88;;;6.05;;
5807;SDS011;2930;42.678;23.312;2022-09-09T16:55:40;8.00;;;6.13;;
5807;SDS011;2930;42.678;23.312;2022-09-09T16:58:12;7.25;;;6.55;;
5807;SDS011;2930;42.678;23.312;2022-09-09T17:00:38;11.07;;;7.22;;
5807;SDS011;2930;42.678;23.312;2022-09-09T17:03:04;8.10;;;7.18;;
5807;SDS011;2930;42.678;23.312;2022-09-09T17:05:30;9.98;;;6.95;;
5807;SDS011;2930;42.678;23.312;2022-09-09T17:07:57;6.32;;;5.00;;
5807;SDS011;2930;42.678;23.312;2022-09-09T17:10:24;10.35;;;5.78;;
5807;SDS011;2930;42.678;23.312;2022-09-09T17:12:50;10.25;;;6.15;;
5807;SDS011;2930;42.678;23.312;2022-09-09T17:15:16;7.20;;;5.25;;
5807;SDS011;2930;42.678;23.312;2022-09-09T17:17:43;6.40;;;4.93;;
5807;SDS011;2930;42.678;23.312;2022-09-09T17:20:10;5.32;;;5.00;;
5807;SDS011;2930;42.678;23.312;2022-09-09T17:22:36;6.68;;;5.22;;
5807;SDS011;2930;42.678;23.312;2022-09-09T17:25:02;6.50;;;5.90;;
5807;SDS011;2930;42.678;23.312;2022-09-09T17:27:28;6.65;;;6.05;;
5807;SDS011;2930;42.678;23.312;2022-09-09T17:29:56;7.32;;;6.60;;
5807;SDS011;2930;42.678;23.312;2022-09-09T17:32:23;6.22;;;5.78;;
5807;SDS011;2930;42.678;23.312;2022-09-09T17:34:49;8.32;;;6.47;;